Time;durP1;ratioP1;P1;durP2;ratioP2;P2;SDS_P1;SDS_P2;PMS_P1;PMS_P2;Temp;Humidity;BMP_temperature;BMP_pressure;BME280_temperature;BME280_humidity;BME280_pressure;Samples;Min_cycle;Max_cycle;Signal;HPM_P1;HPM_P2
2023/09/30 00:01:14;;;;;;;12.97;4.20;;;12.70;99.90;;;;;;4192247;28;20056;-61
2023/09/30 00:03:15;;;;;;;13.33;6.40;;;12.70;99.90;;;;;;4193230;28;20105;-61
2023/09/30 00:05:19;;;;;;;12.27;7.23;;;12.70;99.90;;;;;;4174874;28;20437;-61
2023/09/30 00:07:21;;;;;;;14.43;7.37;;;12.70;99.90;;;;;;4193634;28;20469;-60
2023/09/30 00:09:22;;;;;;;12.50;7.47;;;12.70;99.90;;;;;;4192456;28;20029;-60
2023/09/30 00:11:23;;;;;;;16.07;7.50;;;12.70;99.90;;;;;;4193036;28;20090;-62
2023/09/30 00:13:24;;;;;;;10.87;6.67;;;12.70;99.90;;;;;;4192491;28;20048;-61
2023/09/30 00:15:25;;;;;;;7.57;5.23;;;12.60;99.90;;;;;;4192914;28;20468;-61
2023/09/30 00:17:26;;;;;;;8.33;4.87;;;12.60;99.90;;;;;;4192927;28;20040;-61
2023/09/30 00:19:27;;;;;;;13.27;4.70;;;12.60;99.90;;;;;;4193019;28;20048;-61
2023/09/30 00:21:29;;;;;;;9.73;4.30;;;12.50;99.90;;;;;;4192179;28;20012;-60
2023/09/30 00:23:30;;;;;;;6.43;4.47;;;12.50;99.90;;;;;;4192691;28;20048;-59
2023/09/30 00:25:33;;;;;;;7.87;4.37;;;12.40;99.90;;;;;;4191494;28;20056;-58
2023/09/30 00:27:34;;;;;;;9.63;4.47;;;12.40;99.90;;;;;;4191845;28;20037;-61
2023/09/30 00:29:35;;;;;;;6.13;4.50;;;12.30;99.90;;;;;;4192497;28;20485;-61
2023/09/30 00:31:36;;;;;;;8.87;4.20;;;12.30;99.90;;;;;;4193092;28;20099;-61
2023/09/30 00:33:38;;;;;;;6.63;3.83;;;12.20;99.90;;;;;;4193718;28;20459;-61
2023/09/30 00:35:39;;;;;;;9.17;4.70;;;12.20;99.90;;;;;;4192740;28;20082;-60
2023/09/30 00:37:43;;;;;;;8.23;4.37;;;12.10;99.90;;;;;;4193911;28;20041;-61
2023/09/30 00:39:45;;;;;;;7.53;4.00;;;12.20;99.90;;;;;;4192090;28;20032;-61
2023/09/30 00:41:46;;;;;;;8.87;4.73;;;12.10;99.90;;;;;;4193888;28;20070;-61
2023/09/30 00:43:47;;;;;;;7.70;4.70;;;12.10;99.90;;;;;;4175129;28;20025;-62
2023/09/30 00:45:51;;;;;;;11.57;4.60;;;12.10;99.90;;;;;;4192983;28;20044;-60
2023/09/30 00:47:52;;;;;;;9.47;4.97;;;12.00;99.90;;;;;;4191861;28;20044;-60
2023/09/30 00:49:53;;;;;;;6.53;4.43;;;12.00;99.90;;;;;;4193838;28;20082;-61
2023/09/30 00:51:55;;;;;;;11.67;4.87;;;12.00;99.90;;;;;;4191771;28;20144;-60
2023/09/30 00:53:59;;;;;;;6.63;4.10;;;12.00;99.90;;;;;;4192354;28;20041;-62
2023/09/30 00:56:00;;;;;;;7.77;4.43;;;12.00;99.90;;;;;;4192668;28;20021;-61
2023/09/30 00:58:01;;;;;;;11.70;4.83;;;12.00;99.90;;;;;;4192916;28;21019;-61
2023/09/30 01:00:03;;;;;;;11.70;5.00;;;11.90;99.90;;;;;;4193077;28;20432;-61
2023/09/30 01:02:06;;;;;;;9.83;4.33;;;11.90;99.90;;;;;;4193081;28;20028;-61
2023/09/30 01:04:07;;;;;;;5.13;4.00;;;11.90;99.90;;;;;;4193377;28;20078;-60
2023/09/30 01:06:09;;;;;;;6.83;4.47;;;11.90;99.90;;;;;;4191909;28;20113;-61
2023/09/30 01:08:11;;;;;;;6.17;4.53;;;11.90;99.90;;;;;;4193418;28;20078;-61
2023/09/30 01:10:12;;;;;;;7.93;4.70;;;11.80;99.90;;;;;;4192099;28;20033;-60
2023/09/30 01:12:13;;;;;;;7.07;4.23;;;11.90;99.90;;;;;;4193021;28;20090;-61
2023/09/30 01:14:27;;;;;;;7.73;4.80;;;11.90;99.90;;;;;;4191639;28;20044;-59
2023/09/30 01:16:28;;;;;;;7.00;4.40;;;11.80;99.90;;;;;;4193964;28;20378;-61
2023/09/30 01:18:29;;;;;;;6.20;4.27;;;11.80;99.90;;;;;;4192220;28;20071;-61
2023/09/30 01:20:31;;;;;;;7.40;4.33;;;11.90;99.90;;;;;;4193497;28;20079;-61
2023/09/30 01:22:33;;;;;;;7.83;4.17;;;11.80;99.90;;;;;;4192167;28;20373;-62
2023/09/30 01:24:40;;;;;;;6.73;4.17;;;11.80;99.90;;;;;;4193131;28;20036;-60
2023/09/30 01:26:42;;;;;;;8.17;4.27;;;11.80;99.90;;;;;;4195097;28;20040;-60
2023/09/30 01:28:43;;;;;;;7.80;4.33;;;11.80;99.90;;;;;;4195872;28;20140;-62
2023/09/30 01:30:45;;;;;;;6.83;4.53;;;11.80;99.90;;;;;;4195453;28;20046;-62
2023/09/30 01:32:46;;;;;;;8.37;4.83;;;11.90;99.90;;;;;;4196684;28;20040;-62
2023/09/30 01:34:47;;;;;;;6.77;4.30;;;11.90;99.90;;;;;;4195322;28;20436;-62
2023/09/30 01:36:48;;;;;;;8.60;4.43;;;11.80;99.90;;;;;;4195794;28;20478;-60
2023/09/30 01:38:49;;;;;;;6.83;4.63;;;11.80;99.90;;;;;;4195965;28;20071;-61
2023/09/30 01:40:51;;;;;;;9.83;4.23;;;11.80;99.90;;;;;;4193982;28;20097;-61
2023/09/30 01:42:53;;;;;;;15.50;4.57;;;11.80;99.90;;;;;;4196602;28;20021;-61
2023/09/30 01:44:54;;;;;;;7.33;4.20;;;11.70;99.90;;;;;;4194879;28;20044;-61
2023/09/30 01:46:55;;;;;;;7.17;4.13;;;11.70;99.90;;;;;;4195878;28;20468;-62
2023/09/30 01:48:57;;;;;;;5.83;3.93;;;11.70;99.90;;;;;;4195171;28;20431;-61
2023/09/30 01:50:58;;;;;;;9.07;4.47;;;11.70;99.90;;;;;;4195181;28;20040;-61
2023/09/30 01:52:59;;;;;;;8.40;4.30;;;11.60;99.90;;;;;;4193926;28;20028;-61
2023/09/30 01:55:00;;;;;;;9.50;5.30;;;11.60;99.90;;;;;;4195159;28;20089;-60
2023/09/30 01:57:02;;;;;;;10.80;4.60;;;11.60;99.90;;;;;;4194617;28;20037;-61
2023/09/30 01:59:04;;;;;;;6.27;4.60;;;11.60;99.90;;;;;;4195916;28;20029;-60
2023/09/30 02:01:05;;;;;;;10.30;4.63;;;11.60;99.90;;;;;;4195095;28;20024;-61
2023/09/30 02:03:07;;;;;;;6.13;4.60;;;11.50;99.90;;;;;;4194501;28;20044;-60
2023/09/30 02:05:08;;;;;;;8.83;4.33;;;11.50;99.90;;;;;;4194546;28;20609;-62
2023/09/30 02:07:09;;;;;;;8.87;4.63;;;11.50;99.90;;;;;;4195455;28;20036;-59
2023/09/30 02:09:10;;;;;;;6.50;4.37;;;11.50;99.90;;;;;;4194579;28;20086;-61
2023/09/30 02:11:13;;;;;;;9.23;4.20;;;11.50;99.90;;;;;;4176040;28;20041;-60
2023/09/30 02:13:15;;;;;;;7.87;4.53;;;11.50;99.90;;;;;;4194828;28;20479;-59
2023/09/30 02:15:16;;;;;;;5.90;4.33;;;11.50;99.90;;;;;;4194669;28;20082;-60
2023/09/30 02:17:17;;;;;;;9.33;4.70;;;11.50;99.90;;;;;;4195874;28;20086;-61
2023/09/30 02:19:19;;;;;;;11.60;5.23;;;11.50;99.90;;;;;;4193561;28;20041;-60
2023/09/30 02:21:23;;;;;;;6.07;4.27;;;11.40;99.90;;;;;;4195971;28;20029;-60
2023/09/30 02:23:25;;;;;;;12.73;4.83;;;11.40;99.90;;;;;;4193385;28;20090;-62
2023/09/30 02:25:26;;;;;;;11.83;5.17;;;11.40;99.90;;;;;;4177812;28;20099;-62
2023/09/30 02:27:27;;;;;;;12.60;4.90;;;11.40;99.90;;;;;;4194232;28;20032;-61
2023/09/30 02:29:28;;;;;;;14.53;5.00;;;11.40;99.90;;;;;;4194383;28;20040;-62
2023/09/30 02:31:30;;;;;;;12.40;4.50;;;11.40;99.90;;;;;;4193262;28;20040;-64
2023/09/30 02:33:31;;;;;;;12.77;5.17;;;11.30;99.90;;;;;;4194885;28;20045;-61
2023/09/30 02:35:32;;;;;;;9.17;5.20;;;11.30;99.90;;;;;;4194731;28;20633;-62
2023/09/30 02:37:37;;;;;;;6.93;4.53;;;11.30;99.90;;;;;;4193249;28;20040;-61
2023/09/30 02:39:38;;;;;;;11.30;5.50;;;11.30;99.90;;;;;;4194492;28;20020;-60
2023/09/30 02:41:39;;;;;;;10.40;4.90;;;11.30;99.90;;;;;;4194225;28;20040;-61
2023/09/30 02:43:40;;;;;;;6.53;4.40;;;11.30;99.90;;;;;;4193908;28;20436;-61
2023/09/30 02:45:41;;;;;;;8.10;4.50;;;11.20;99.90;;;;;;4193998;28;20098;-57
2023/09/30 02:47:43;;;;;;;11.27;5.53;;;11.20;99.90;;;;;;4192597;28;20041;-61
2023/09/30 02:49:44;;;;;;;9.07;5.70;;;11.20;99.90;;;;;;4189917;28;20041;-61
2023/09/30 02:51:45;;;;;;;12.20;6.40;;;11.10;99.90;;;;;;4193606;28;20040;-60
2023/09/30 02:53:48;;;;;;;12.10;5.97;;;11.10;99.90;;;;;;4193693;28;20094;-60
2023/09/30 02:55:52;;;;;;;11.80;5.90;;;11.00;99.90;;;;;;4189567;28;20078;-60
2023/09/30 02:57:53;;;;;;;10.83;5.93;;;11.10;99.90;;;;;;4193868;28;20078;-60
2023/09/30 02:59:54;;;;;;;11.67;5.77;;;11.00;99.90;;;;;;4194633;28;20029;-58
2023/09/30 03:01:56;;;;;;;9.47;6.30;;;11.00;99.90;;;;;;4192521;28;20142;-61
2023/09/30 03:03:57;;;;;;;9.40;6.10;;;11.00;99.90;;;;;;4195359;28;20464;-60
2023/09/30 03:05:58;;;;;;;9.53;6.00;;;10.90;99.90;;;;;;4194037;28;20044;-60
2023/09/30 03:08:04;;;;;;;9.23;5.67;;;10.90;99.90;;;;;;4193003;28;20044;-59
2023/09/30 03:10:08;;;;;;;14.40;6.00;;;10.80;99.90;;;;;;4175892;28;20089;-61
2023/09/30 03:12:09;;;;;;;12.70;5.33;;;10.80;99.90;;;;;;4194174;28;20053;-59
2023/09/30 03:14:11;;;;;;;9.90;6.20;;;10.70;99.90;;;;;;4194323;28;20021;-60
2023/09/30 03:16:12;;;;;;;11.57;6.00;;;10.70;99.90;;;;;;4193651;28;20439;-61
2023/09/30 03:18:13;;;;;;;14.60;5.23;;;10.70;99.90;;;;;;4193674;28;20315;-60
2023/09/30 03:20:19;;;;;;;11.20;5.60;;;10.80;99.90;;;;;;4174453;28;20045;-61
2023/09/30 03:22:20;;;;;;;13.77;5.63;;;10.70;99.90;;;;;;4181889;28;20024;-60
2023/09/30 03:24:22;;;;;;;12.83;6.23;;;10.70;99.90;;;;;;4192992;28;20025;-58
2023/09/30 03:26:23;;;;;;;12.87;5.73;;;10.70;99.90;;;;;;4192823;28;20419;-60
2023/09/30 03:28:25;;;;;;;10.20;5.83;;;10.60;99.90;;;;;;4193350;28;20101;-61
2023/09/30 03:30:27;;;;;;;9.17;5.90;;;10.60;99.90;;;;;;4194651;28;20028;-60
2023/09/30 03:32:29;;;;;;;10.73;6.07;;;10.40;99.90;;;;;;4193171;28;20040;-59
2023/09/30 03:34:30;;;;;;;9.90;5.63;;;10.40;99.90;;;;;;4195067;28;20066;-61
2023/09/30 03:36:31;;;;;;;10.80;5.93;;;10.40;99.90;;;;;;4193239;28;20036;-61
2023/09/30 03:38:32;;;;;;;16.47;6.77;;;10.30;99.90;;;;;;4192234;28;20037;-62
2023/09/30 03:40:34;;;;;;;14.83;6.17;;;10.30;99.90;;;;;;4193397;28;21400;-61
2023/09/30 03:42:35;;;;;;;12.87;6.30;;;10.20;99.90;;;;;;4193898;28;20016;-58
2023/09/30 03:44:36;;;;;;;11.17;6.00;;;10.20;99.90;;;;;;4192772;28;20048;-61
2023/09/30 03:46:37;;;;;;;16.53;7.33;;;10.20;99.90;;;;;;4192374;28;20107;-60
2023/09/30 03:48:42;;;;;;;13.50;6.77;;;10.10;99.90;;;;;;4192446;28;20086;-61
2023/09/30 03:50:43;;;;;;;12.00;6.33;;;10.10;99.90;;;;;;4192448;28;20094;-61
2023/09/30 03:52:45;;;;;;;12.27;6.63;;;10.10;99.90;;;;;;4193270;28;20190;-61
2023/09/30 03:54:48;;;;;;;16.83;8.47;;;10.10;99.90;;;;;;4191803;28;20488;-61
2023/09/30 03:56:49;;;;;;;14.83;8.70;;;10.10;99.90;;;;;;4177934;28;20412;-60
2023/09/30 03:58:51;;;;;;;21.13;9.40;;;10.00;99.90;;;;;;4192287;28;20440;-60
2023/09/30 04:00:53;;;;;;;17.03;8.77;;;10.00;99.90;;;;;;4193792;28;20423;-64
2023/09/30 04:02:58;;;;;;;19.70;8.07;;;9.90;99.90;;;;;;4192184;28;20028;-63
2023/09/30 04:05:03;;;;;;;17.73;7.93;;;9.90;99.90;;;;;;4189769;28;20090;-62
2023/09/30 04:07:05;;;;;;;21.93;9.13;;;9.80;99.90;;;;;;4191410;28;20106;-60
2023/09/30 04:09:09;;;;;;;13.30;7.53;;;9.70;99.90;;;;;;4193243;28;20439;-60
2023/09/30 04:11:16;;;;;;;13.47;7.93;;;9.70;99.90;;;;;;4191340;28;20469;-63
2023/09/30 04:13:19;;;;;;;19.47;8.20;;;9.70;99.90;;;;;;4192128;28;20582;-62
2023/09/30 04:15:20;;;;;;;13.67;8.00;;;9.70;99.90;;;;;;4192907;28;20024;-62
2023/09/30 04:17:23;;;;;;;17.83;7.87;;;9.60;99.90;;;;;;4193607;28;20041;-62
2023/09/30 04:19:24;;;;;;;15.67;7.53;;;9.60;99.90;;;;;;4174848;28;20029;-60
2023/09/30 04:21:26;;;;;;;14.80;7.47;;;9.50;99.90;;;;;;4193460;28;20074;-63
2023/09/30 04:23:27;;;;;;;15.43;8.33;;;9.50;99.90;;;;;;4192641;28;20040;-63
2023/09/30 04:25:30;;;;;;;19.13;8.03;;;9.40;99.90;;;;;;4192863;28;20094;-63
2023/09/30 04:27:32;;;;;;;14.60;7.53;;;9.40;99.90;;;;;;4193625;28;20377;-61
2023/09/30 04:29:34;;;;;;;16.93;8.53;;;9.30;99.90;;;;;;4192819;28;20480;-62
2023/09/30 04:31:35;;;;;;;20.80;9.70;;;9.30;99.90;;;;;;4193889;28;20122;-62
2023/09/30 04:33:37;;;;;;;13.63;8.30;;;9.30;99.90;;;;;;4192174;28;20101;-61
2023/09/30 04:35:38;;;;;;;15.50;8.53;;;9.30;99.90;;;;;;4193228;28;20050;-63
2023/09/30 04:37:40;;;;;;;16.33;7.57;;;9.30;99.90;;;;;;4192409;28;20431;-62
2023/09/30 04:39:41;;;;;;;21.20;9.13;;;9.40;99.90;;;;;;4193298;28;20078;-62
2023/09/30 04:41:42;;;;;;;19.13;9.40;;;9.50;99.90;;;;;;4192597;28;20370;-62
2023/09/30 04:43:43;;;;;;;16.83;9.67;;;9.60;99.90;;;;;;4193274;28;20443;-61
2023/09/30 04:45:45;;;;;;;18.43;9.47;;;9.70;99.90;;;;;;4191247;28;20473;-61
2023/09/30 04:47:48;;;;;;;18.77;9.97;;;9.90;99.90;;;;;;4191614;28;20040;-58
2023/09/30 04:49:51;;;;;;;19.23;9.57;;;10.10;99.90;;;;;;4192513;28;20530;-60
2023/09/30 04:51:52;;;;;;;21.90;9.33;;;10.20;99.90;;;;;;4192109;28;20094;-62
2023/09/30 04:53:55;;;;;;;17.47;9.23;;;10.40;99.90;;;;;;4192549;28;20074;-64
2023/09/30 04:55:56;;;;;;;17.13;8.63;;;10.60;99.90;;;;;;4192802;28;20136;-64
2023/09/30 04:57:57;;;;;;;24.30;10.80;;;10.60;99.90;;;;;;4193242;28;20122;-61
2023/09/30 04:59:58;;;;;;;20.17;9.13;;;10.60;99.90;;;;;;4192322;28;20118;-62
2023/09/30 05:02:00;;;;;;;20.33;9.10;;;10.70;99.90;;;;;;4197125;28;20431;-61
2023/09/30 05:04:01;;;;;;;16.20;8.43;;;10.80;99.90;;;;;;4196230;28;20119;-62
2023/09/30 05:06:03;;;;;;;16.80;7.40;;;10.90;99.90;;;;;;4195951;28;20069;-61
2023/09/30 05:08:06;;;;;;;17.67;9.37;;;10.90;99.90;;;;;;4194742;28;20066;-60
2023/09/30 05:10:13;;;;;;;19.97;9.37;;;11.00;99.90;;;;;;4196151;28;20144;-62
2023/09/30 05:12:16;;;;;;;16.67;8.93;;;11.20;99.90;;;;;;4195721;28;20028;-62
2023/09/30 05:14:17;;;;;;;19.13;7.93;;;11.20;99.90;;;;;;4195966;28;20109;-62
2023/09/30 05:16:18;;;;;;;15.13;8.53;;;11.50;99.90;;;;;;4195378;28;20086;-61
2023/09/30 05:18:19;;;;;;;20.10;8.97;;;11.80;99.90;;;;;;4196128;28;20036;-62
2023/09/30 05:20:21;;;;;;;18.53;8.43;;;11.90;99.90;;;;;;4194261;28;20044;-61
2023/09/30 05:22:23;;;;;;;18.47;7.77;;;12.10;99.90;;;;;;4196279;28;20794;-62
2023/09/30 05:24:25;;;;;;;15.90;8.00;;;12.20;99.90;;;;;;4194668;28;20063;-63
2023/09/30 05:26:26;;;;;;;21.70;8.30;;;12.40;99.90;;;;;;4194938;28;20060;-61
2023/09/30 05:28:27;;;;;;;15.40;7.53;;;12.60;99.90;;;;;;4195923;28;20036;-59
2023/09/30 05:30:29;;;;;;;20.10;7.47;;;12.90;99.90;;;;;;4195581;28;20040;-62
2023/09/30 05:32:30;;;;;;;17.37;7.50;;;13.20;99.90;;;;;;4195654;28;20092;-62
2023/09/30 05:34:32;;;;;;;16.80;7.67;;;13.70;99.90;;;;;;4193902;28;20040;-64
2023/09/30 05:36:34;;;;;;;20.30;8.53;;;13.90;99.90;;;;;;4191510;28;20020;-63
2023/09/30 05:38:35;;;;;;;18.10;9.15;;;14.60;99.90;;;;;;4177520;28;20044;-60
2023/09/30 05:40:36;;;;;;;19.92;8.52;;;15.30;99.90;;;;;;4191915;28;20052;-63
2023/09/30 05:42:38;;;;;;;14.88;7.57;;;15.90;99.90;;;;;;4194445;28;20024;-62
2023/09/30 05:44:39;;;;;;;16.73;8.05;;;16.40;99.90;;;;;;4193857;28;20485;-64
2023/09/30 05:46:40;;;;;;;16.17;8.50;;;17.00;99.90;;;;;;4194050;28;20433;-64
2023/09/30 05:48:42;;;;;;;24.40;8.63;;;17.40;99.90;;;;;;4193813;28;20037;-66
2023/09/30 05:50:43;;;;;;;18.20;8.05;;;17.50;99.90;;;;;;4193028;28;20036;-62
2023/09/30 05:52:45;;;;;;;21.65;10.18;;;17.20;99.90;;;;;;4195428;28;20082;-60
2023/09/30 05:54:46;;;;;;;38.83;16.08;;;17.30;99.90;;;;;;4193799;28;20036;-62
2023/09/30 05:56:49;;;;;;;24.65;9.02;;;17.40;99.90;;;;;;4194249;28;20032;-64
2023/09/30 05:58:50;;;;;;;29.85;14.02;;;17.40;99.90;;;;;;4194267;28;20040;-60
2023/09/30 06:00:51;;;;;;;17.75;8.02;;;17.50;99.90;;;;;;4194227;28;20044;-61
2023/09/30 06:02:53;;;;;;;14.25;8.43;;;17.60;99.90;;;;;;4194626;28;20028;-63
2023/09/30 06:04:54;;;;;;;19.08;8.43;;;17.20;99.90;;;;;;4176871;28;20106;-62
2023/09/30 06:06:55;;;;;;;25.60;8.43;;;17.10;99.90;;;;;;4195419;28;20187;-63
2023/09/30 06:08:59;;;;;;;17.02;7.47;;;16.90;99.90;;;;;;4193372;28;20447;-63
2023/09/30 06:11:00;;;;;;;14.90;7.55;;;17.10;99.90;;;;;;4193388;28;20098;-61
2023/09/30 06:13:02;;;;;;;11.77;7.18;;;17.40;99.90;;;;;;4193895;28;20102;-62
2023/09/30 06:15:03;;;;;;;11.77;6.50;;;17.40;99.90;;;;;;4194612;28;20110;-65
2023/09/30 06:17:05;;;;;;;13.23;6.78;;;17.70;99.90;;;;;;4175193;28;20036;-63
2023/09/30 06:19:06;;;;;;;11.48;7.05;;;18.00;99.90;;;;;;4195177;28;20484;-63
2023/09/30 06:21:10;;;;;;;15.13;7.90;;;18.50;99.90;;;;;;4194478;28;20073;-60
2023/09/30 06:23:11;;;;;;;12.73;7.43;;;19.00;99.90;;;;;;4195472;28;20029;-64
2023/09/30 06:25:16;;;;;;;14.27;7.30;;;19.20;99.90;;;;;;4194510;28;20121;-67
2023/09/30 06:27:18;;;;;;;11.27;6.93;;;19.30;99.90;;;;;;4194701;28;20374;-62
2023/09/30 06:29:19;;;;;;;12.32;7.63;;;19.70;99.90;;;;;;4194100;28;20040;-61
2023/09/30 06:31:20;;;;;;;10.85;7.93;;;19.90;99.90;;;;;;4194480;28;20036;-61
2023/09/30 06:33:22;;;;;;;14.13;8.27;;;20.20;99.90;;;;;;4194941;28;20109;-60
2023/09/30 06:35:23;;;;;;;19.17;8.48;;;19.90;99.90;;;;;;4194925;28;20383;-59
2023/09/30 06:37:26;;;;;;;17.95;7.35;;;19.50;99.90;;;;;;4194213;28;20090;-60
2023/09/30 06:39:29;;;;;;;20.17;8.63;;;19.00;99.90;;;;;;4193652;28;20048;-57
2023/09/30 06:41:30;;;;;;;17.85;8.90;;;18.70;99.90;;;;;;4194484;28;20096;-59
2023/09/30 06:43:33;;;;;;;19.40;9.75;;;18.30;99.90;;;;;;4192821;28;20109;-61
2023/09/30 06:45:34;;;;;;;20.65;9.15;;;17.90;99.90;;;;;;4194213;28;20045;-60
2023/09/30 06:47:36;;;;;;;17.75;8.85;;;18.00;99.90;;;;;;4194245;28;20138;-61
2023/09/30 06:49:37;;;;;;;22.40;11.65;;;17.70;99.90;;;;;;4195335;28;20029;-61
2023/09/30 06:51:39;;;;;;;16.52;9.38;;;17.70;99.90;;;;;;4193903;28;20477;-59
2023/09/30 06:53:40;;;;;;;13.73;9.20;;;17.70;99.90;;;;;;4193738;28;20102;-58
2023/09/30 06:55:43;;;;;;;17.83;9.23;;;18.10;99.90;;;;;;4193594;28;20496;-58
2023/09/30 06:57:44;;;;;;;13.13;7.75;;;18.10;99.90;;;;;;4194410;28;20049;-65
2023/09/30 06:59:45;;;;;;;15.88;7.82;;;18.60;99.90;;;;;;4193870;28;20049;-60
2023/09/30 07:01:46;;;;;;;12.85;8.27;;;19.20;99.90;;;;;;4193768;28;20033;-61
2023/09/30 07:03:48;;;;;;;17.85;8.18;;;19.20;99.90;;;;;;4190003;28;20083;-59
2023/09/30 07:05:49;;;;;;;16.52;9.20;;;19.30;99.90;;;;;;4177702;28;20771;-57
2023/09/30 07:07:51;;;;;;;14.45;7.38;;;19.40;99.90;;;;;;4192084;28;20416;-57
2023/09/30 07:09:52;;;;;;;13.88;9.07;;;19.30;99.90;;;;;;4193616;28;20078;-60
2023/09/30 07:11:53;;;;;;;11.65;7.38;;;19.30;99.90;;;;;;4193749;28;20041;-58
2023/09/30 07:13:55;;;;;;;13.32;7.13;;;19.70;99.90;;;;;;4192080;28;20036;-60
2023/09/30 07:15:56;;;;;;;10.00;6.60;;;19.80;99.90;;;;;;4193566;28;20049;-58
2023/09/30 07:17:57;;;;;;;14.32;7.80;;;19.80;99.90;;;;;;4192266;28;20044;-57
2023/09/30 07:19:59;;;;;;;19.95;7.20;;;19.70;99.90;;;;;;4194306;28;20028;-57
2023/09/30 07:22:00;;;;;;;11.88;6.90;;;19.60;99.90;;;;;;4192766;28;20447;-61
2023/09/30 07:24:01;;;;;;;14.13;6.82;;;19.70;99.90;;;;;;4193052;28;20029;-61
2023/09/30 07:26:02;;;;;;;12.98;6.90;;;19.60;99.90;;;;;;4192514;28;20423;-66
2023/09/30 07:28:04;;;;;;;11.57;7.60;;;19.80;99.90;;;;;;4193407;28;20040;-63
2023/09/30 07:30:06;;;;;;;13.80;7.18;;;20.10;99.90;;;;;;4176428;28;20090;-59
2023/09/30 07:32:09;;;;;;;14.95;7.10;;;20.10;99.90;;;;;;4188014;28;20139;-56
2023/09/30 07:34:10;;;;;;;13.10;6.55;;;20.30;99.90;;;;;;4193217;28;20048;-62
2023/09/30 07:36:14;;;;;;;12.02;6.22;;;20.30;99.80;;;;;;4193531;28;20481;-58
2023/09/30 07:38:15;;;;;;;11.70;6.55;;;20.20;99.90;;;;;;4193715;28;20079;-60
2023/09/30 07:40:16;;;;;;;10.90;6.28;;;20.20;99.90;;;;;;4192843;28;20082;-60
2023/09/30 07:42:18;;;;;;;12.00;5.93;;;20.10;99.90;;;;;;4193561;28;20040;-60
2023/09/30 07:44:19;;;;;;;9.13;5.80;;;20.20;99.90;;;;;;4192983;28;20036;-61
2023/09/30 07:46:20;;;;;;;12.25;7.35;;;20.30;99.90;;;;;;4193174;28;20103;-61
2023/09/30 07:48:21;;;;;;;11.13;6.00;;;20.10;99.90;;;;;;4192510;28;20037;-62
2023/09/30 07:50:22;;;;;;;11.00;6.43;;;20.00;99.90;;;;;;4193722;28;20040;-59
2023/09/30 07:52:24;;;;;;;10.00;6.05;;;20.10;99.90;;;;;;4193217;28;20032;-59
2023/09/30 07:54:25;;;;;;;11.32;5.60;;;20.10;99.90;;;;;;4194384;28;20028;-61
2023/09/30 07:56:26;;;;;;;10.55;6.22;;;20.10;99.90;;;;;;4193156;28;20101;-59
2023/09/30 07:58:27;;;;;;;14.23;6.53;;;20.00;99.90;;;;;;4193713;28;20041;-63
2023/09/30 08:00:29;;;;;;;11.88;5.55;;;19.90;99.90;;;;;;4192798;28;20106;-61
2023/09/30 08:02:33;;;;;;;11.70;7.07;;;19.90;99.90;;;;;;4175799;28;20048;-60
2023/09/30 08:04:34;;;;;;;18.98;10.35;;;19.70;99.90;;;;;;4193177;28;20017;-60
2023/09/30 08:06:35;;;;;;;16.83;7.88;;;19.60;99.90;;;;;;4193970;28;20028;-62
2023/09/30 08:08:36;;;;;;;18.05;9.05;;;19.80;99.90;;;;;;4191227;28;20036;-60
2023/09/30 08:10:38;;;;;;;12.25;9.35;;;19.70;99.90;;;;;;4192681;28;20040;-60
2023/09/30 08:12:40;;;;;;;19.30;9.35;;;19.60;99.90;;;;;;4193622;28;20058;-60
2023/09/30 08:14:44;;;;;;;11.10;7.47;;;19.80;99.90;;;;;;4192621;28;20121;-60
2023/09/30 08:16:45;;;;;;;10.38;7.45;;;20.00;99.90;;;;;;4193807;28;20048;-59
2023/09/30 08:18:46;;;;;;;15.30;7.78;;;20.10;99.90;;;;;;4193240;28;20024;-59
2023/09/30 08:20:49;;;;;;;10.35;6.10;;;20.20;99.90;;;;;;4193856;28;20086;-60
2023/09/30 08:22:50;;;;;;;16.40;6.38;;;20.30;99.40;;;;;;4192771;28;20044;-62
2023/09/30 08:24:51;;;;;;;8.80;6.20;;;20.30;99.30;;;;;;4193237;28;20044;-60
2023/09/30 08:26:52;;;;;;;9.80;7.22;;;20.30;99.20;;;;;;4192592;28;20056;-61
2023/09/30 08:28:53;;;;;;;9.48;6.35;;;20.00;99.20;;;;;;4192819;28;20124;-60
2023/09/30 08:30:58;;;;;;;9.00;6.03;;;19.90;99.60;;;;;;4191278;28;20455;-62
2023/09/30 08:32:59;;;;;;;15.35;6.60;;;19.90;99.80;;;;;;4193856;28;20059;-62
2023/09/30 08:35:03;;;;;;;11.60;6.22;;;19.80;99.90;;;;;;4192028;28;20032;-60
2023/09/30 08:37:04;;;;;;;10.25;5.88;;;19.90;99.90;;;;;;4186363;28;20435;-63
2023/09/30 08:39:06;;;;;;;8.63;5.78;;;20.00;99.90;;;;;;4192154;28;20091;-62
2023/09/30 08:41:08;;;;;;;8.40;5.47;;;20.20;99.90;;;;;;4193557;28;20025;-63
2023/09/30 08:43:12;;;;;;;9.55;6.43;;;20.20;99.90;;;;;;4193141;28;20082;-65
2023/09/30 08:45:16;;;;;;;8.25;5.75;;;20.10;99.90;;;;;;4192501;28;20044;-65
2023/09/30 08:47:17;;;;;;;15.10;6.65;;;20.10;99.90;;;;;;4193269;28;20028;-62
2023/09/30 08:49:21;;;;;;;10.65;6.10;;;20.10;99.90;;;;;;4192263;28;20032;-62
2023/09/30 08:51:22;;;;;;;12.25;6.03;;;20.20;99.90;;;;;;4193388;28;20415;-63
2023/09/30 08:53:24;;;;;;;12.90;5.80;;;20.30;99.90;;;;;;4191432;28;20029;-62
2023/09/30 08:55:28;;;;;;;9.45;5.47;;;20.30;99.90;;;;;;4190836;28;20102;-61
2023/09/30 08:57:29;;;;;;;13.98;6.25;;;20.40;99.80;;;;;;4191850;28;20495;-61
2023/09/30 08:59:35;;;;;;;13.32;6.75;;;20.40;99.90;;;;;;4193065;28;20041;-60
2023/09/30 09:01:37;;;;;;;11.10;7.43;;;20.60;99.90;;;;;;4192716;28;20033;-61
2023/09/30 09:03:39;;;;;;;9.63;5.72;;;20.80;99.50;;;;;;4192511;28;20067;-61
2023/09/30 09:05:40;;;;;;;10.75;5.57;;;21.00;99.40;;;;;;4193051;28;20074;-61
2023/09/30 09:07:42;;;;;;;11.93;5.53;;;21.30;99.20;;;;;;4193031;28;20106;-60
2023/09/30 09:10:06;;;;;;;9.85;5.70;;;21.70;98.90;;;;;;4174639;28;20032;-61
2023/09/30 09:12:19;;;;;;;12.63;5.38;;;21.80;98.30;;;;;;4193569;28;20493;-61
2023/09/30 09:14:39;;;;;;;10.82;5.78;;;21.80;98.50;;;;;;4192813;28;20036;-61
2023/09/30 09:16:55;;;;;;;9.52;5.18;;;22.00;98.00;;;;;;4193594;28;20431;-61
2023/09/30 09:18:56;;;;;;;11.80;5.10;;;22.00;97.90;;;;;;4192800;28;20037;-60
2023/09/30 09:21:14;;;;;;;13.57;5.22;;;22.10;97.80;;;;;;4193715;28;20037;-62
2023/09/30 09:23:15;;;;;;;6.15;4.82;;;22.40;97.30;;;;;;4192038;28;20486;-62
2023/09/30 09:25:17;;;;;;;9.45;4.97;;;22.60;97.30;;;;;;4192505;28;20469;-62
2023/09/30 09:27:20;;;;;;;8.32;5.55;;;22.50;97.20;;;;;;4191242;28;20052;-62
2023/09/30 09:29:26;;;;;;;8.38;5.85;;;22.50;97.10;;;;;;4192852;28;20311;-62
2023/09/30 09:31:29;;;;;;;9.43;5.65;;;22.70;96.90;;;;;;4192507;28;20024;-59
2023/09/30 09:33:37;;;;;;;10.10;5.53;;;22.70;96.70;;;;;;4193245;28;20040;-61
2023/09/30 09:35:38;;;;;;;9.75;5.93;;;22.70;96.40;;;;;;4191694;28;20090;-59
2023/09/30 09:37:39;;;;;;;9.68;5.28;;;22.80;96.50;;;;;;4193307;28;20535;-58
2023/09/30 09:39:48;;;;;;;8.63;5.63;;;22.80;96.40;;;;;;4191662;28;20036;-58
2023/09/30 09:41:54;;;;;;;9.38;4.72;;;23.20;96.40;;;;;;4193240;28;20029;-59
2023/09/30 09:43:59;;;;;;;10.55;5.03;;;23.00;96.10;;;;;;4191388;28;20041;-59
2023/09/30 09:46:03;;;;;;;10.18;5.70;;;22.90;96.10;;;;;;4189069;28;20036;-60
2023/09/30 09:48:04;;;;;;;8.40;4.82;;;22.80;96.20;;;;;;4195711;28;20086;-61
2023/09/30 09:50:06;;;;;;;9.57;4.68;;;22.70;96.30;;;;;;4194376;28;20036;-58
2023/09/30 09:52:08;;;;;;;8.75;5.07;;;22.80;96.30;;;;;;4195473;28;20575;-61
2023/09/30 09:54:10;;;;;;;10.30;4.63;;;22.90;96.10;;;;;;4194771;28;20569;-60
2023/09/30 09:56:12;;;;;;;10.18;5.00;;;23.10;95.90;;;;;;4195055;28;20044;-61
2023/09/30 09:58:14;;;;;;;9.00;5.30;;;23.30;95.70;;;;;;4193607;28;20488;-62
2023/09/30 10:00:24;;;;;;;8.32;4.93;;;23.20;95.60;;;;;;4196096;28;20086;-57
2023/09/30 10:02:27;;;;;;;9.13;4.32;;;23.30;95.60;;;;;;4194335;28;20518;-54
2023/09/30 10:04:30;;;;;;;7.55;4.22;;;23.20;95.50;;;;;;4196063;28;20037;-60
2023/09/30 10:06:38;;;;;;;10.65;4.97;;;23.20;95.50;;;;;;4194469;28;20040;-55
2023/09/30 10:08:45;;;;;;;9.93;4.20;;;23.20;95.50;;;;;;4195493;28;20423;-60
2023/09/30 10:10:46;;;;;;;9.07;4.60;;;23.00;95.30;;;;;;4193896;28;20044;-57
2023/09/30 10:12:48;;;;;;;10.98;4.15;;;23.00;95.40;;;;;;4195184;28;20036;-60
2023/09/30 10:14:49;;;;;;;12.50;4.50;;;23.00;95.20;;;;;;4193727;28;20451;-60
2023/09/30 10:16:51;;;;;;;10.40;4.70;;;23.10;95.20;;;;;;4195565;28;20059;-60
2023/09/30 10:19:08;;;;;;;11.25;4.20;;;23.20;95.00;;;;;;4194384;28;20028;-61
2023/09/30 10:21:10;;;;;;;7.15;3.95;;;23.40;94.90;;;;;;4195901;28;20032;-54
2023/09/30 10:23:21;;;;;;;12.63;5.05;;;23.60;94.80;;;;;;4193697;28;20097;-60
2023/09/30 10:25:36;;;;;;;6.25;3.78;;;23.50;94.40;;;;;;4179579;28;20036;-61
2023/09/30 10:27:37;;;;;;;11.30;4.25;;;23.50;94.40;;;;;;4177883;28;20091;-59
2023/09/30 10:29:42;;;;;;;7.93;4.07;;;23.50;94.70;;;;;;4179206;28;20087;-60
2023/09/30 10:31:51;;;;;;;9.18;4.32;;;23.60;94.70;;;;;;4178005;28;20138;-59